sensor_id;sensor_type;location;lat;lon;timestamp;temperature;humidity
58413;DHT22;44209;52.952;6.790;2023-03-03T00:01:10;1.30;99.90
58413;DHT22;44209;52.952;6.790;2023-03-03T00:03:36;1.40;99.90
58413;DHT22;44209;52.952;6.790;2023-03-03T00:06:03;1.30;99.90
58413;DHT22;44209;52.952;6.790;2023-03-03T00:08:30;1.30;99.90
58413;DHT22;44209;52.952;6.790;2023-03-03T00:10:57;1.30;99.90
58413;DHT22;44209;52.952;6.790;2023-03-03T00:13:26;1.40;99.90
58413;DHT22;44209;52.952;6.790;2023-03-03T00:15:53;1.40;99.90
58413;DHT22;44209;52.952;6.790;2023-03-03T00:18:32;1.40;99.90
58413;DHT22;44209;52.952;6.790;2023-03-03T00:21:01;1.40;99.90
58413;DHT22;44209;52.952;6.790;2023-03-03T00:25:57;1.50;99.90
58413;DHT22;44209;52.952;6.790;2023-03-03T00:28:44;1.50;99.90
58413;DHT22;44209;52.952;6.790;2023-03-03T00:31:34;1.60;99.90
58413;DHT22;44209;52.952;6.790;2023-03-03T00:34:24;1.60;99.90
58413;DHT22;44209;52.952;6.790;2023-03-03T00:36:53;1.60;99.90
58413;DHT22;44209;52.952;6.790;2023-03-03T00:39:35;1.60;99.90
58413;DHT22;44209;52.952;6.790;2023-03-03T00:42:04;1.60;99.90
58413;DHT22;44209;52.952;6.790;2023-03-03T00:44:59;1.70;99.90
58413;DHT22;44209;52.952;6.790;2023-03-03T00:47:45;1.70;99.90
58413;DHT22;44209;52.952;6.790;2023-03-03T00:52:38;1.70;99.90
58413;DHT22;44209;52.952;6.790;2023-03-03T00:55:05;1.80;99.90
58413;DHT22;44209;52.952;6.790;2023-03-03T00:57:31;1.80;99.90
58413;DHT22;44209;52.952;6.790;2023-03-03T00:59:57;1.80;99.90
58413;DHT22;44209;52.952;6.790;2023-03-03T01:02:23;1.80;99.90
58413;DHT22;44209;52.952;6.790;2023-03-03T01:04:51;1.80;99.90
58413;DHT22;44209;52.952;6.790;2023-03-03T01:07:18;1.90;99.90
58413;DHT22;44209;52.952;6.790;2023-03-03T01:09:44;1.90;99.90
58413;DHT22;44209;52.952;6.790;2023-03-03T01:12:11;1.90;99.90
58413;DHT22;44209;52.952;6.790;2023-03-03T01:14:37;1.90;99.90
58413;DHT22;44209;52.952;6.790;2023-03-03T01:17:03;2.00;99.90
58413;DHT22;44209;52.952;6.790;2023-03-03T01:19:29;2.00;99.90
58413;DHT22;44209;52.952;6.790;2023-03-03T01:21:55;2.00;99.90
58413;DHT22;44209;52.952;6.790;2023-03-03T01:24:20;2.00;99.90
58413;DHT22;44209;52.952;6.790;2023-03-03T01:26:46;2.00;99.90
58413;DHT22;44209;52.952;6.790;2023-03-03T01:29:12;2.00;99.90
58413;DHT22;44209;52.952;6.790;2023-03-03T01:31:38;2.00;99.90
58413;DHT22;44209;52.952;6.790;2023-03-03T01:34:05;2.10;99.90
58413;DHT22;44209;52.952;6.790;2023-03-03T01:36:32;2.10;99.90
58413;DHT22;44209;52.952;6.790;2023-03-03T01:38:59;2.10;99.90
58413;DHT22;44209;52.952;6.790;2023-03-03T01:41:29;2.10;99.90
58413;DHT22;44209;52.952;6.790;2023-03-03T01:43:58;2.10;99.90
58413;DHT22;44209;52.952;6.790;2023-03-03T01:49:04;2.10;99.90
58413;DHT22;44209;52.952;6.790;2023-03-03T01:52:18;2.10;99.90
58413;DHT22;44209;52.952;6.790;2023-03-03T01:55:02;2.10;99.90
58413;DHT22;44209;52.952;6.790;2023-03-03T01:57:26;2.10;99.90
58413;DHT22;44209;52.952;6.790;2023-03-03T01:59:52;2.10;99.90
58413;DHT22;44209;52.952;6.790;2023-03-03T02:02:19;2.10;99.90
58413;DHT22;44209;52.952;6.790;2023-03-03T02:04:46;2.10;99.90
58413;DHT22;44209;52.952;6.790;2023-03-03T02:07:13;2.10;99.90
58413;DHT22;44209;52.952;6.790;2023-03-03T02:10:04;2.10;99.90
58413;DHT22;44209;52.952;6.790;2023-03-03T02:12:35;2.20;99.90
58413;DHT22;44209;52.952;6.790;2023-03-03T02:15:15;2.20;99.90
58413;DHT22;44209;52.952;6.790;2023-03-03T02:17:41;2.20;99.90
58413;DHT22;44209;52.952;6.790;2023-03-03T02:20:14;2.20;99.90
58413;DHT22;44209;52.952;6.790;2023-03-03T02:23:07;2.20;99.90
58413;DHT22;44209;52.952;6.790;2023-03-03T02:28:21;2.20;99.90
58413;DHT22;44209;52.952;6.790;2023-03-03T02:30:47;2.30;99.90
58413;DHT22;44209;52.952;6.790;2023-03-03T02:33:13;2.30;99.90
58413;DHT22;44209;52.952;6.790;2023-03-03T02:35:39;2.30;99.90
58413;DHT22;44209;52.952;6.790;2023-03-03T02:41:25;2.30;99.90
58413;DHT22;44209;52.952;6.790;2023-03-03T02:44:06;2.20;99.90
58413;DHT22;44209;52.952;6.790;2023-03-03T02:46:40;2.30;99.90
58413;DHT22;44209;52.952;6.790;2023-03-03T02:49:07;2.30;99.90
58413;DHT22;44209;52.952;6.790;2023-03-03T02:51:34;2.30;99.90
58413;DHT22;44209;52.952;6.790;2023-03-03T02:53:59;2.30;99.90
58413;DHT22;44209;52.952;6.790;2023-03-03T02:56:25;2.30;99.90
58413;DHT22;44209;52.952;6.790;2023-03-03T02:58:51;2.30;99.90
58413;DHT22;44209;52.952;6.790;2023-03-03T03:01:18;2.30;99.90
58413;DHT22;44209;52.952;6.790;2023-03-03T03:03:44;2.30;99.90
58413;DHT22;44209;52.952;6.790;2023-03-03T03:06:10;2.30;99.90
58413;DHT22;44209;52.952;6.790;2023-03-03T03:08:36;2.30;99.90
58413;DHT22;44209;52.952;6.790;2023-03-03T03:11:03;2.30;99.90
58413;DHT22;44209;52.952;6.790;2023-03-03T03:13:30;2.30;99.90
58413;DHT22;44209;52.952;6.790;2023-03-03T03:15:56;2.30;99.90
58413;DHT22;44209;52.952;6.790;2023-03-03T03:18:22;2.20;99.90
58413;DHT22;44209;52.952;6.790;2023-03-03T03:20:47;2.20;99.90
58413;DHT22;44209;52.952;6.790;2023-03-03T03:23:13;2.20;99.90
58413;DHT22;44209;52.952;6.790;2023-03-03T03:25:40;2.20;99.90
58413;DHT22;44209;52.952;6.790;2023-03-03T03:28:11;2.10;99.90
58413;DHT22;44209;52.952;6.790;2023-03-03T03:30:37;2.10;99.90
58413;DHT22;44209;52.952;6.790;2023-03-03T03:33:04;2.10;99.90
58413;DHT22;44209;52.952;6.790;2023-03-03T03:35:31;2.10;99.90
58413;DHT22;44209;52.952;6.790;2023-03-03T03:37:57;2.10;99.90
58413;DHT22;44209;52.952;6.790;2023-03-03T03:40:23;2.10;99.90
58413;DHT22;44209;52.952;6.790;2023-03-03T03:42:50;2.00;99.90
58413;DHT22;44209;52.952;6.790;2023-03-03T03:45:15;2.00;99.90
58413;DHT22;44209;52.952;6.790;2023-03-03T03:47:41;2.00;99.90
58413;DHT22;44209;52.952;6.790;2023-03-03T03:50:08;1.90;99.90
58413;DHT22;44209;52.952;6.790;2023-03-03T03:52:34;1.90;99.90
58413;DHT22;44209;52.952;6.790;2023-03-03T03:55:00;2.00;99.90
58413;DHT22;44209;52.952;6.790;2023-03-03T03:57:26;1.90;99.90
58413;DHT22;44209;52.952;6.790;2023-03-03T03:59:51;2.00;99.90
58413;DHT22;44209;52.952;6.790;2023-03-03T04:02:17;2.00;99.90
58413;DHT22;44209;52.952;6.790;2023-03-03T04:04:43;2.00;99.90
58413;DHT22;44209;52.952;6.790;2023-03-03T04:07:09;2.00;99.90
58413;DHT22;44209;52.952;6.790;2023-03-03T04:09:34;2.00;99.90
58413;DHT22;44209;52.952;6.790;2023-03-03T04:12:00;2.00;99.90
58413;DHT22;44209;52.952;6.790;2023-03-03T04:14:26;1.90;99.90
58413;DHT22;44209;52.952;6.790;2023-03-03T04:16:52;2.00;99.90
58413;DHT22;44209;52.952;6.790;2023-03-03T04:19:18;2.00;99.90
58413;DHT22;44209;52.952;6.790;2023-03-03T04:21:43;2.00;99.90
58413;DHT22;44209;52.952;6.790;2023-03-03T04:24:09;2.00;99.90
58413;DHT22;44209;52.952;6.790;2023-03-03T04:26:35;2.00;99.90
58413;DHT22;44209;52.952;6.790;2023-03-03T04:29:00;2.00;99.90
58413;DHT22;44209;52.952;6.790;2023-03-03T04:31:27;2.00;99.90
58413;DHT22;44209;52.952;6.790;2023-03-03T04:33:52;2.10;99.90
58413;DHT22;44209;52.952;6.790;2023-03-03T04:36:19;2.10;99.90
58413;DHT22;44209;52.952;6.790;2023-03-03T04:38:45;2.10;99.90
58413;DHT22;44209;52.952;6.790;2023-03-03T04:41:11;2.00;99.90
58413;DHT22;44209;52.952;6.790;2023-03-03T04:43:37;2.10;99.90
58413;DHT22;44209;52.952;6.790;2023-03-03T04:46:02;2.10;99.90
58413;DHT22;44209;52.952;6.790;2023-03-03T04:48:28;2.00;99.90
58413;DHT22;44209;52.952;6.790;2023-03-03T04:50:54;2.00;99.90
58413;DHT22;44209;52.952;6.790;2023-03-03T04:53:20;2.00;99.90
58413;DHT22;44209;52.952;6.790;2023-03-03T04:55:45;2.00;99.90
58413;DHT22;44209;52.952;6.790;2023-03-03T04:58:11;2.00;99.90
58413;DHT22;44209;52.952;6.790;2023-03-03T05:00:37;2.00;99.90
58413;DHT22;44209;52.952;6.790;2023-03-03T05:03:04;2.00;99.90
58413;DHT22;44209;52.952;6.790;2023-03-03T05:05:29;2.10;99.90
58413;DHT22;44209;52.952;6.790;2023-03-03T05:07:55;2.10;99.90
58413;DHT22;44209;52.952;6.790;2023-03-03T05:10:21;2.10;99.90
58413;DHT22;44209;52.952;6.790;2023-03-03T05:12:46;2.10;99.90
58413;DHT22;44209;52.952;6.790;2023-03-03T05:15:12;2.10;99.90
58413;DHT22;44209;52.952;6.790;2023-03-03T05:17:38;2.20;99.90
58413;DHT22;44209;52.952;6.790;2023-03-03T05:20:04;2.20;99.90
58413;DHT22;44209;52.952;6.790;2023-03-03T05:22:33;2.30;99.90
58413;DHT22;44209;52.952;6.790;2023-03-03T05:24:59;2.30;99.90
58413;DHT22;44209;52.952;6.790;2023-03-03T05:27:24;2.30;99.90
58413;DHT22;44209;52.952;6.790;2023-03-03T05:29:50;2.20;99.90
58413;DHT22;44209;52.952;6.790;2023-03-03T05:32:16;2.20;99.90
58413;DHT22;44209;52.952;6.790;2023-03-03T05:34:42;2.20;99.90
58413;DHT22;44209;52.952;6.790;2023-03-03T05:37:07;2.20;99.90
58413;DHT22;44209;52.952;6.790;2023-03-03T05:39:34;2.20;99.90
58413;DHT22;44209;52.952;6.790;2023-03-03T05:42:00;2.20;99.90
58413;DHT22;44209;52.952;6.790;2023-03-03T05:44:26;2.20;99.90
58413;DHT22;44209;52.952;6.790;2023-03-03T05:46:52;2.20;99.90
58413;DHT22;44209;52.952;6.790;2023-03-03T05:49:17;2.20;99.90
58413;DHT22;44209;52.952;6.790;2023-03-03T05:51:43;2.20;99.90
58413;DHT22;44209;52.952;6.790;2023-03-03T05:54:09;2.20;99.90
58413;DHT22;44209;52.952;6.790;2023-03-03T05:56:35;2.20;99.90
58413;DHT22;44209;52.952;6.790;2023-03-03T05:59:00;2.20;99.90
58413;DHT22;44209;52.952;6.790;2023-03-03T06:01:26;2.20;99.90
58413;DHT22;44209;52.952;6.790;2023-03-03T06:03:53;2.30;99.90
58413;DHT22;44209;52.952;6.790;2023-03-03T06:06:19;2.30;99.90
58413;DHT22;44209;52.952;6.790;2023-03-03T06:08:45;2.30;99.90
58413;DHT22;44209;52.952;6.790;2023-03-03T06:11:10;2.30;99.90
58413;DHT22;44209;52.952;6.790;2023-03-03T06:13:37;2.30;99.90
58413;DHT22;44209;52.952;6.790;2023-03-03T06:16:03;2.30;99.90
58413;DHT22;44209;52.952;6.790;2023-03-03T06:18:29;2.30;99.90
58413;DHT22;44209;52.952;6.790;2023-03-03T06:20:55;2.30;99.90
58413;DHT22;44209;52.952;6.790;2023-03-03T06:23:21;2.30;99.90
58413;DHT22;44209;52.952;6.790;2023-03-03T06:25:47;2.20;99.90
58413;DHT22;44209;52.952;6.790;2023-03-03T06:28:13;2.20;99.90
58413;DHT22;44209;52.952;6.790;2023-03-03T06:30:39;2.20;99.90
58413;DHT22;44209;52.952;6.790;2023-03-03T06:33:05;2.20;99.90
58413;DHT22;44209;52.952;6.790;2023-03-03T06:35:31;2.20;99.90
58413;DHT22;44209;52.952;6.790;2023-03-03T06:37:57;2.20;99.90
58413;DHT22;44209;52.952;6.790;2023-03-03T06:40:23;2.20;99.90
58413;DHT22;44209;52.952;6.790;2023-03-03T06:42:48;2.20;99.90
58413;DHT22;44209;52.952;6.790;2023-03-03T06:45:14;2.20;99.90
58413;DHT22;44209;52.952;6.790;2023-03-03T06:47:40;2.20;99.90
58413;DHT22;44209;52.952;6.790;2023-03-03T06:50:07;2.20;99.90
58413;DHT22;44209;52.952;6.790;2023-03-03T06:52:34;2.20;99.90
58413;DHT22;44209;52.952;6.790;2023-03-03T06:55:01;2.20;99.90
58413;DHT22;44209;52.952;6.790;2023-03-03T06:57:34;2.30;99.90
58413;DHT22;44209;52.952;6.790;2023-03-03T07:00:22;2.30;99.90
58413;DHT22;44209;52.952;6.790;2023-03-03T07:02:57;2.30;99.90
58413;DHT22;44209;52.952;6.790;2023-03-03T07:05:25;2.30;99.90
58413;DHT22;44209;52.952;6.790;2023-03-03T07:07:56;2.20;99.90
58413;DHT22;44209;52.952;6.790;2023-03-03T07:10:29;2.30;99.90
58413;DHT22;44209;52.952;6.790;2023-03-03T07:13:15;2.30;99.90
58413;DHT22;44209;52.952;6.790;2023-03-03T07:15:42;2.30;99.90
58413;DHT22;44209;52.952;6.790;2023-03-03T07:20:54;2.40;99.90
58413;DHT22;44209;52.952;6.790;2023-03-03T07:23:23;2.40;99.90
58413;DHT22;44209;52.952;6.790;2023-03-03T07:25:49;2.40;99.90
58413;DHT22;44209;52.952;6.790;2023-03-03T07:28:27;2.40;99.90
58413;DHT22;44209;52.952;6.790;2023-03-03T07:30:54;2.50;99.90
58413;DHT22;44209;52.952;6.790;2023-03-03T07:33:27;2.50;99.90
58413;DHT22;44209;52.952;6.790;2023-03-03T07:35:55;2.50;99.90
58413;DHT22;44209;52.952;6.790;2023-03-03T07:38:29;2.50;99.90
58413;DHT22;44209;52.952;6.790;2023-03-03T07:40:57;2.60;99.90
58413;DHT22;44209;52.952;6.790;2023-03-03T07:43:38;2.60;99.90
58413;DHT22;44209;52.952;6.790;2023-03-03T07:48:56;2.60;99.90
58413;DHT22;44209;52.952;6.790;2023-03-03T07:51:27;2.70;99.90
58413;DHT22;44209;52.952;6.790;2023-03-03T07:56:46;2.70;99.90
58413;DHT22;44209;52.952;6.790;2023-03-03T07:59:23;2.80;99.90
58413;DHT22;44209;52.952;6.790;2023-03-03T08:01:55;2.90;99.90
58413;DHT22;44209;52.952;6.790;2023-03-03T08:04:39;3.00;99.90
58413;DHT22;44209;52.952;6.790;2023-03-03T08:07:13;3.00;99.90
58413;DHT22;44209;52.952;6.790;2023-03-03T08:09:59;3.00;99.90
58413;DHT22;44209;52.952;6.790;2023-03-03T08:12:40;3.10;99.90
58413;DHT22;44209;52.952;6.790;2023-03-03T08:15:24;3.10;99.90
58413;DHT22;44209;52.952;6.790;2023-03-03T08:17:53;3.10;99.90
58413;DHT22;44209;52.952;6.790;2023-03-03T08:23:00;3.20;99.90
58413;DHT22;44209;52.952;6.790;2023-03-03T08:25:25;3.20;99.90
58413;DHT22;44209;52.952;6.790;2023-03-03T08:27:51;3.20;99.90
58413;DHT22;44209;52.952;6.790;2023-03-03T08:30:17;3.20;99.90
58413;DHT22;44209;52.952;6.790;2023-03-03T08:32:42;3.30;99.90
58413;DHT22;44209;52.952;6.790;2023-03-03T08:35:08;3.40;99.90
58413;DHT22;44209;52.952;6.790;2023-03-03T08:37:34;3.40;99.90
58413;DHT22;44209;52.952;6.790;2023-03-03T08:40:00;3.50;99.90
58413;DHT22;44209;52.952;6.790;2023-03-03T08:42:26;3.60;99.90
58413;DHT22;44209;52.952;6.790;2023-03-03T08:44:54;3.60;99.90
58413;DHT22;44209;52.952;6.790;2023-03-03T08:47:20;3.60;99.90
58413;DHT22;44209;52.952;6.790;2023-03-03T08:49:46;3.70;99.90
58413;DHT22;44209;52.952;6.790;2023-03-03T08:52:12;3.70;99.90
58413;DHT22;44209;52.952;6.790;2023-03-03T08:54:38;3.70;99.90
58413;DHT22;44209;52.952;6.790;2023-03-03T08:57:03;3.70;99.90
58413;DHT22;44209;52.952;6.790;2023-03-03T08:59:29;3.80;99.90
58413;DHT22;44209;52.952;6.790;2023-03-03T09:01:54;3.90;99.90
58413;DHT22;44209;52.952;6.790;2023-03-03T09:04:21;4.10;99.90
58413;DHT22;44209;52.952;6.790;2023-03-03T09:06:46;4.20;99.90
58413;DHT22;44209;52.952;6.790;2023-03-03T09:09:12;4.30;99.90
58413;DHT22;44209;52.952;6.790;2023-03-03T09:11:38;4.40;99.90
58413;DHT22;44209;52.952;6.790;2023-03-03T09:14:12;4.40;99.90
58413;DHT22;44209;52.952;6.790;2023-03-03T09:16:50;4.30;99.90
58413;DHT22;44209;52.952;6.790;2023-03-03T09:21:44;4.30;99.90
58413;DHT22;44209;52.952;6.790;2023-03-03T09:24:36;4.30;99.90
58413;DHT22;44209;52.952;6.790;2023-03-03T09:27:17;4.20;99.90
58413;DHT22;44209;52.952;6.790;2023-03-03T09:29:43;4.20;99.90
58413;DHT22;44209;52.952;6.790;2023-03-03T09:32:35;4.10;99.90
58413;DHT22;44209;52.952;6.790;2023-03-03T09:37:52;4.10;99.90
58413;DHT22;44209;52.952;6.790;2023-03-03T09:48:47;4.10;99.90
58413;DHT22;44209;52.952;6.790;2023-03-03T09:51:25;4.10;99.90
58413;DHT22;44209;52.952;6.790;2023-03-03T09:54:11;4.20;99.90
58413;DHT22;44209;52.952;6.790;2023-03-03T09:56:53;4.20;99.90
58413;DHT22;44209;52.952;6.790;2023-03-03T10:05:18;4.40;99.90
58413;DHT22;44209;52.952;6.790;2023-03-03T10:07:59;4.50;99.90
58413;DHT22;44209;52.952;6.790;2023-03-03T10:10:50;4.50;99.90
58413;DHT22;44209;52.952;6.790;2023-03-03T10:21:40;4.70;99.90
58413;DHT22;44209;52.952;6.790;2023-03-03T10:24:28;4.70;99.90
58413;DHT22;44209;52.952;6.790;2023-03-03T10:27:12;4.80;99.90
58413;DHT22;44209;52.952;6.790;2023-03-03T10:29:58;4.90;99.90
58413;DHT22;44209;52.952;6.790;2023-03-03T10:32:39;4.90;99.90
58413;DHT22;44209;52.952;6.790;2023-03-03T10:38:07;5.00;99.90
58413;DHT22;44209;52.952;6.790;2023-03-03T10:40:53;5.00;99.90
58413;DHT22;44209;52.952;6.790;2023-03-03T10:43:32;5.10;99.90
58413;DHT22;44209;52.952;6.790;2023-03-03T10:46:14;5.20;99.90
58413;DHT22;44209;52.952;6.790;2023-03-03T10:49:13;5.20;99.90
58413;DHT22;44209;52.952;6.790;2023-03-03T10:57:27;5.50;99.90
58413;DHT22;44209;52.952;6.790;2023-03-03T11:00:35;5.70;99.90
58413;DHT22;44209;52.952;6.790;2023-03-03T11:05:47;5.90;99.90
58413;DHT22;44209;52.952;6.790;2023-03-03T11:08:29;5.90;99.90
58413;DHT22;44209;52.952;6.790;2023-03-03T11:13:44;6.10;99.90
58413;DHT22;44209;52.952;6.790;2023-03-03T11:16:28;6.20;99.90
58413;DHT22;44209;52.952;6.790;2023-03-03T11:22:14;6.50;99.90
58413;DHT22;44209;52.952;6.790;2023-03-03T11:33:00;6.80;99.90
58413;DHT22;44209;52.952;6.790;2023-03-03T11:43:56;7.20;99.90
58413;DHT22;44209;52.952;6.790;2023-03-03T11:46:43;7.30;99.90
58413;DHT22;44209;52.952;6.790;2023-03-03T11:52:25;7.30;99.90
58413;DHT22;44209;52.952;6.790;2023-03-03T11:55:18;7.30;99.90
58413;DHT22;44209;52.952;6.790;2023-03-03T11:57:48;7.40;99.90
58413;DHT22;44209;52.952;6.790;2023-03-03T12:03:15;7.40;99.90
58413;DHT22;44209;52.952;6.790;2023-03-03T12:16:57;7.50;99.90
58413;DHT22;44209;52.952;6.790;2023-03-03T12:22:18;7.60;99.90
58413;DHT22;44209;52.952;6.790;2023-03-03T12:38:28;7.40;99.90
58413;DHT22;44209;52.952;6.790;2023-03-03T12:43:51;7.40;99.90
58413;DHT22;44209;52.952;6.790;2023-03-03T12:46:27;7.60;99.90
58413;DHT22;44209;52.952;6.790;2023-03-03T12:48:58;7.60;99.90
58413;DHT22;44209;52.952;6.790;2023-03-03T12:54:17;7.60;99.90
58413;DHT22;44209;52.952;6.790;2023-03-03T12:56:44;7.60;99.90
58413;DHT22;44209;52.952;6.790;2023-03-03T12:59:34;7.60;99.90
58413;DHT22;44209;52.952;6.790;2023-03-03T13:05:44;7.50;99.90
58413;DHT22;44209;52.952;6.790;2023-03-03T13:16:32;7.50;99.90
58413;DHT22;44209;52.952;6.790;2023-03-03T13:24:17;7.70;99.90
58413;DHT22;44209;52.952;6.790;2023-03-03T13:26:55;7.60;99.90
58413;DHT22;44209;52.952;6.790;2023-03-03T13:29:42;7.60;99.90
58413;DHT22;44209;52.952;6.790;2023-03-03T13:32:20;7.50;99.90
58413;DHT22;44209;52.952;6.790;2023-03-03T13:35:05;7.70;99.90
58413;DHT22;44209;52.952;6.790;2023-03-03T13:37:40;7.90;99.90
58413;DHT22;44209;52.952;6.790;2023-03-03T13:40:20;8.10;99.90
58413;DHT22;44209;52.952;6.790;2023-03-03T13:42:59;8.30;99.90
58413;DHT22;44209;52.952;6.790;2023-03-03T13:57:17;8.30;99.90
58413;DHT22;44209;52.952;6.790;2023-03-03T14:07:56;8.40;99.90
58413;DHT22;44209;52.952;6.790;2023-03-03T14:10:28;8.60;99.90
58413;DHT22;44209;52.952;6.790;2023-03-03T14:13:05;8.60;99.90
58413;DHT22;44209;52.952;6.790;2023-03-03T14:15:43;8.70;99.90
58413;DHT22;44209;52.952;6.790;2023-03-03T14:18:28;8.70;99.90
58413;DHT22;44209;52.952;6.790;2023-03-03T14:21:12;8.70;99.90
58413;DHT22;44209;52.952;6.790;2023-03-03T14:23:52;8.60;99.90
58413;DHT22;44209;52.952;6.790;2023-03-03T14:26:22;8.50;99.90
58413;DHT22;44209;52.952;6.790;2023-03-03T14:28:49;8.40;99.90
58413;DHT22;44209;52.952;6.790;2023-03-03T14:31:26;8.30;99.90
58413;DHT22;44209;52.952;6.790;2023-03-03T14:34:00;8.20;99.90
58413;DHT22;44209;52.952;6.790;2023-03-03T14:36:31;8.40;99.90
58413;DHT22;44209;52.952;6.790;2023-03-03T14:38:58;8.50;99.90
58413;DHT22;44209;52.952;6.790;2023-03-03T14:41:53;8.60;99.90
58413;DHT22;44209;52.952;6.790;2023-03-03T14:44:34;8.60;99.90
58413;DHT22;44209;52.952;6.790;2023-03-03T14:49:38;8.60;99.90
58413;DHT22;44209;52.952;6.790;2023-03-03T14:54:44;8.50;99.90
58413;DHT22;44209;52.952;6.790;2023-03-03T14:57:12;8.40;99.90
58413;DHT22;44209;52.952;6.790;2023-03-03T14:59:42;8.40;99.90
58413;DHT22;44209;52.952;6.790;2023-03-03T15:02:28;8.40;99.90
58413;DHT22;44209;52.952;6.790;2023-03-03T15:07:36;8.70;99.90
58413;DHT22;44209;52.952;6.790;2023-03-03T15:10:03;8.70;99.90
58413;DHT22;44209;52.952;6.790;2023-03-03T15:17:52;8.40;99.90
58413;DHT22;44209;52.952;6.790;2023-03-03T15:20:40;8.30;99.90
58413;DHT22;44209;52.952;6.790;2023-03-03T15:34:12;7.70;99.90
58413;DHT22;44209;52.952;6.790;2023-03-03T15:56:14;7.20;99.90
58413;DHT22;44209;52.952;6.790;2023-03-03T16:04:35;7.10;99.90
58413;DHT22;44209;52.952;6.790;2023-03-03T16:12:46;7.00;99.90
58413;DHT22;44209;52.952;6.790;2023-03-03T16:15:25;7.00;99.90
58413;DHT22;44209;52.952;6.790;2023-03-03T16:18:01;6.90;99.90
58413;DHT22;44209;52.952;6.790;2023-03-03T16:31:22;6.80;99.90
58413;DHT22;44209;52.952;6.790;2023-03-03T16:34:11;6.80;99.90
58413;DHT22;44209;52.952;6.790;2023-03-03T16:42:25;6.70;99.90
58413;DHT22;44209;52.952;6.790;2023-03-03T16:55:55;6.60;99.90
58413;DHT22;44209;52.952;6.790;2023-03-03T17:00:58;6.50;99.90
58413;DHT22;44209;52.952;6.790;2023-03-03T17:03:58;6.50;99.90
58413;DHT22;44209;52.952;6.790;2023-03-03T17:06:52;6.50;99.90
58413;DHT22;44209;52.952;6.790;2023-03-03T17:09:22;6.50;99.90
58413;DHT22;44209;52.952;6.790;2023-03-03T17:17:50;6.50;99.90
58413;DHT22;44209;52.952;6.790;2023-03-03T17:28:43;6.50;99.90
58413;DHT22;44209;52.952;6.790;2023-03-03T17:34:06;6.50;99.90
58413;DHT22;44209;52.952;6.790;2023-03-03T17:42:36;6.40;99.90
58413;DHT22;44209;52.952;6.790;2023-03-03T17:45:15;6.40;99.90
58413;DHT22;44209;52.952;6.790;2023-03-03T18:23:28;6.30;99.90
58413;DHT22;44209;52.952;6.790;2023-03-03T18:26:04;6.30;99.90
58413;DHT22;44209;52.952;6.790;2023-03-03T18:28:49;6.30;99.90
58413;DHT22;44209;52.952;6.790;2023-03-03T18:31:26;6.30;99.90
58413;DHT22;44209;52.952;6.790;2023-03-03T18:34:24;6.30;99.90
58413;DHT22;44209;52.952;6.790;2023-03-03T18:39:48;6.30;99.90
58413;DHT22;44209;52.952;6.790;2023-03-03T18:44:41;6.20;99.90
58413;DHT22;44209;52.952;6.790;2023-03-03T18:47:07;6.30;99.90
58413;DHT22;44209;52.952;6.790;2023-03-03T18:52:34;6.20;99.90
58413;DHT22;44209;52.952;6.790;2023-03-03T18:55:21;6.20;99.90
58413;DHT22;44209;52.952;6.790;2023-03-03T18:58:33;6.20;99.90
58413;DHT22;44209;52.952;6.790;2023-03-03T19:09:00;6.20;99.90
58413;DHT22;44209;52.952;6.790;2023-03-03T19:11:39;6.20;99.90
58413;DHT22;44209;52.952;6.790;2023-03-03T19:16:51;6.20;99.90
58413;DHT22;44209;52.952;6.790;2023-03-03T19:19:19;6.20;99.90
58413;DHT22;44209;52.952;6.790;2023-03-03T19:22:25;6.20;99.90
58413;DHT22;44209;52.952;6.790;2023-03-03T19:25:22;6.20;99.90
58413;DHT22;44209;52.952;6.790;2023-03-03T19:41:32;6.20;99.90
58413;DHT22;44209;52.952;6.790;2023-03-03T19:46:57;6.20;99.90
58413;DHT22;44209;52.952;6.790;2023-03-03T19:52:33;6.10;99.90
58413;DHT22;44209;52.952;6.790;2023-03-03T19:58:19;6.10;99.90
58413;DHT22;44209;52.952;6.790;2023-03-03T20:00:56;6.10;99.90
58413;DHT22;44209;52.952;6.790;2023-03-03T20:03:48;6.10;99.90
58413;DHT22;44209;52.952;6.790;2023-03-03T20:06:40;6.10;99.90
58413;DHT22;44209;52.952;6.790;2023-03-03T20:15:38;6.10;99.90
58413;DHT22;44209;52.952;6.790;2023-03-03T20:21:31;6.10;99.90
58413;DHT22;44209;52.952;6.790;2023-03-03T20:35:40;6.00;99.90
58413;DHT22;44209;52.952;6.790;2023-03-03T20:39:15;6.10;99.90
58413;DHT22;44209;52.952;6.790;2023-03-03T20:47:31;6.00;99.90
58413;DHT22;44209;52.952;6.790;2023-03-03T20:50:27;6.10;99.90
58413;DHT22;44209;52.952;6.790;2023-03-03T20:53:35;6.10;99.90
58413;DHT22;44209;52.952;6.790;2023-03-03T20:56:24;6.00;99.90
58413;DHT22;44209;52.952;6.790;2023-03-03T20:59:06;6.00;99.90
58413;DHT22;44209;52.952;6.790;2023-03-03T21:04:32;6.10;99.90
58413;DHT22;44209;52.952;6.790;2023-03-03T21:07:02;6.00;99.90
58413;DHT22;44209;52.952;6.790;2023-03-03T21:09:31;6.10;99.90
58413;DHT22;44209;52.952;6.790;2023-03-03T21:11:58;6.10;99.90
58413;DHT22;44209;52.952;6.790;2023-03-03T21:14:30;6.10;99.90
58413;DHT22;44209;52.952;6.790;2023-03-03T21:16:59;6.10;99.90
58413;DHT22;44209;52.952;6.790;2023-03-03T21:19:31;6.10;99.90
58413;DHT22;44209;52.952;6.790;2023-03-03T21:21:58;6.10;99.90
58413;DHT22;44209;52.952;6.790;2023-03-03T21:25:05;6.10;99.90
58413;DHT22;44209;52.952;6.790;2023-03-03T21:27:33;6.10;99.90
58413;DHT22;44209;52.952;6.790;2023-03-03T21:30:12;6.10;99.90
58413;DHT22;44209;52.952;6.790;2023-03-03T21:32:41;6.10;99.90
58413;DHT22;44209;52.952;6.790;2023-03-03T21:35:13;6.10;99.90
58413;DHT22;44209;52.952;6.790;2023-03-03T21:40:24;6.10;99.90
58413;DHT22;44209;52.952;6.790;2023-03-03T21:42:51;6.10;99.90
58413;DHT22;44209;52.952;6.790;2023-03-03T21:45:18;6.10;99.90
58413;DHT22;44209;52.952;6.790;2023-03-03T21:47:49;6.10;99.90
58413;DHT22;44209;52.952;6.790;2023-03-03T21:50:16;6.10;99.90
58413;DHT22;44209;52.952;6.790;2023-03-03T21:52:41;6.10;99.90
58413;DHT22;44209;52.952;6.790;2023-03-03T21:55:08;6.20;99.90
58413;DHT22;44209;52.952;6.790;2023-03-03T21:57:34;6.10;99.90
58413;DHT22;44209;52.952;6.790;2023-03-03T22:00:00;6.20;99.90
58413;DHT22;44209;52.952;6.790;2023-03-03T22:02:26;6.10;99.90
58413;DHT22;44209;52.952;6.790;2023-03-03T22:04:52;6.10;99.90
58413;DHT22;44209;52.952;6.790;2023-03-03T22:07:18;6.20;99.90
58413;DHT22;44209;52.952;6.790;2023-03-03T22:09:43;6.10;99.90
58413;DHT22;44209;52.952;6.790;2023-03-03T22:12:09;6.10;99.90
58413;DHT22;44209;52.952;6.790;2023-03-03T22:14:35;6.20;99.90
58413;DHT22;44209;52.952;6.790;2023-03-03T22:17:01;6.20;99.90
58413;DHT22;44209;52.952;6.790;2023-03-03T22:19:27;6.20;99.90
58413;DHT22;44209;52.952;6.790;2023-03-03T22:21:53;6.20;99.90
58413;DHT22;44209;52.952;6.790;2023-03-03T22:24:18;6.10;99.90
58413;DHT22;44209;52.952;6.790;2023-03-03T22:26:44;6.20;99.90
58413;DHT22;44209;52.952;6.790;2023-03-03T22:29:10;6.10;99.90
58413;DHT22;44209;52.952;6.790;2023-03-03T22:31:36;6.10;99.90
58413;DHT22;44209;52.952;6.790;2023-03-03T22:34:02;6.10;99.90
58413;DHT22;44209;52.952;6.790;2023-03-03T22:36:29;6.10;99.90